Time;durP1;ratioP1;P1;durP2;ratioP2;P2;SDS_P1;SDS_P2;PMS_P1;PMS_P2;Temp;Humidity;BMP_temperature;BMP_pressure;BME280_temperature;BME280_humidity;BME280_pressure;Samples;Min_cycle;Max_cycle;Signal;HPM_P1;HPM_P2
2023/10/19 00:01:59;;;;;;;29.25;5.40;;;16.30;99.90;;;15.66;100.00;98747.09;4152847;28;20021;-73
2023/10/19 00:04:01;;;;;;;25.80;4.68;;;16.30;99.90;;;15.64;100.00;98735.91;4135561;28;20490;-73
2023/10/19 00:06:02;;;;;;;33.47;5.13;;;16.30;99.90;;;15.64;100.00;98735.91;4152726;28;20034;-73
2023/10/19 00:08:14;;;;;;;24.58;5.40;;;16.30;99.90;;;15.62;100.00;98728.16;4141269;28;20046;-73
2023/10/19 00:10:16;;;;;;;39.80;5.45;;;16.30;99.90;;;15.62;100.00;98730.03;4153063;28;20106;-73
2023/10/19 00:12:17;;;;;;;28.15;4.78;;;16.20;99.90;;;15.62;100.00;98724.72;4168849;28;20073;-73
2023/10/19 00:14:18;;;;;;;27.77;5.05;;;16.20;99.90;;;15.60;100.00;98708.16;4167695;28;20025;-73
2023/10/19 00:16:22;;;;;;;29.85;4.32;;;16.20;99.90;;;15.58;100.00;98713.75;4151251;28;20057;-73
2023/10/19 00:18:24;;;;;;;;;;;16.20;99.90;;;15.56;100.00;98715.03;4152276;28;20026;-73
2023/10/19 00:22:42;;;;;;;35.42;5.90;;;16.20;99.90;;;15.54;100.00;98701.97;4137344;28;20026;-73
2023/10/19 00:24:44;;;;;;;23.65;4.13;;;16.20;99.90;;;15.55;100.00;98700.09;4135256;28;20461;-73
2023/10/19 00:26:45;;;;;;;30.02;5.18;;;16.20;99.90;;;15.56;100.00;98693.75;4135397;28;20089;-73
2023/10/19 00:28:52;;;;;;;30.85;4.85;;;16.20;99.90;;;15.59;100.00;98693.28;4152628;28;20083;-73
2023/10/19 00:31:00;;;;;;;20.65;3.78;;;16.20;99.90;;;15.59;100.00;98694.06;4135164;28;20026;-73
2023/10/19 00:33:16;;;;;;;33.08;6.60;;;16.20;99.90;;;15.61;100.00;98691.19;4135720;28;20026;-73
2023/10/19 00:35:27;;;;;;;29.95;3.63;;;16.30;99.90;;;15.61;100.00;98684.03;4152455;28;20022;-73
2023/10/19 00:37:29;;;;;;;27.48;4.28;;;16.20;99.90;;;15.60;100.00;98690.38;4152559;28;20496;-73
2023/10/19 00:39:40;;;;;;;29.58;4.68;;;16.30;99.90;;;15.63;100.00;98689.09;4152615;28;20040;-73
2023/10/19 00:41:42;;;;;;;27.20;4.90;;;16.30;99.90;;;15.62;100.00;98676.88;4136546;28;20529;-73
2023/10/19 00:43:43;;;;;;;24.83;4.20;;;16.20;99.90;;;15.65;100.00;98665.75;4152445;28;20495;-73
2023/10/19 00:45:46;;;;;;;23.65;3.90;;;16.30;99.90;;;15.66;100.00;98676.13;4152341;28;20111;-73
2023/10/19 00:47:48;;;;;;;33.07;5.00;;;16.30;99.90;;;15.69;100.00;98672.19;4152333;28;20037;-73
2023/10/19 00:49:49;;;;;;;26.77;6.10;;;16.30;99.90;;;15.69;100.00;98651.72;4134844;28;20368;-73
2023/10/19 00:52:02;;;;;;;27.90;4.78;;;16.30;99.90;;;15.73;100.00;98673.34;4152293;28;20026;-73
2023/10/19 00:54:21;;;;;;;24.80;5.05;;;16.40;99.90;;;15.74;100.00;98659.00;4141865;28;20022;-73
2023/10/19 00:56:25;;;;;;;29.65;5.32;;;16.40;99.90;;;15.76;100.00;98656.91;4154481;28;20021;-73
2023/10/19 00:58:30;;;;;;;;;;;16.40;99.90;;;15.75;100.00;98650.78;4142177;28;20130;-73
2023/10/19 01:00:31;;;;;;;21.90;4.28;;;16.40;99.90;;;15.76;100.00;98652.41;4140702;28;19989;-73
2023/10/19 01:02:32;;;;;;;25.20;4.93;;;16.40;99.90;;;15.78;100.00;98657.47;4157800;28;20041;-73
2023/10/19 01:04:34;;;;;;;28.35;5.53;;;16.40;99.90;;;15.77;100.00;98643.34;4157878;28;20037;-73
2023/10/19 01:06:35;;;;;;;30.13;5.25;;;16.40;99.90;;;15.80;100.00;98637.56;4157648;28;20022;-73
2023/10/19 01:08:44;;;;;;;26.10;4.78;;;16.40;99.90;;;15.77;100.00;98638.03;4157671;28;20026;-73
2023/10/19 01:10:46;;;;;;;28.30;4.45;;;16.40;99.90;;;15.75;100.00;98640.16;4141093;28;20051;-73
2023/10/19 01:12:47;;;;;;;27.00;4.50;;;16.40;99.90;;;15.73;100.00;98636.13;4157375;28;20050;-73
2023/10/19 01:15:17;;;;;;;30.25;4.90;;;16.40;99.90;;;15.72;100.00;98637.16;4157442;28;20032;-73
2023/10/19 01:17:18;;;;;;;25.20;3.38;;;16.40;99.90;;;15.73;100.00;98633.47;4140712;28;20058;-73
2023/10/19 01:19:20;;;;;;;25.40;4.63;;;16.40;99.90;;;15.74;100.00;98635.09;4155825;28;20112;-73
2023/10/19 01:21:37;;;;;;;29.60;5.43;;;16.40;99.90;;;15.77;100.00;98637.25;4157653;28;20033;-73
2023/10/19 01:23:38;;;;;;;28.75;4.40;;;16.40;99.90;;;15.77;100.00;98634.59;4141882;28;20030;-73
2023/10/19 01:27:57;;;;;;;24.10;4.55;;;16.40;99.90;;;15.72;100.00;98618.53;4157559;28;20033;-73
2023/10/19 01:30:01;;;;;;;26.88;4.43;;;16.40;99.90;;;15.72;100.00;98627.34;4140495;28;20090;-73
2023/10/19 01:32:07;;;;;;;26.00;3.72;;;16.40;99.90;;;15.72;100.00;98622.03;4162120;28;20392;-73
2023/10/19 01:34:09;;;;;;;19.33;3.53;;;16.40;99.90;;;15.71;100.00;98611.63;4159012;28;20053;-73
2023/10/19 01:36:14;;;;;;;24.98;4.45;;;16.30;99.90;;;15.69;100.00;98609.22;4157500;28;20025;-73
2023/10/19 01:38:15;;;;;;;20.38;2.78;;;16.30;99.90;;;15.70;100.00;98613.50;4157415;28;20072;-73
2023/10/19 01:40:20;;;;;;;17.60;3.20;;;16.30;99.90;;;15.66;100.00;98603.56;4157400;28;20021;-73
2023/10/19 01:42:21;;;;;;;15.93;3.78;;;16.30;99.90;;;15.66;100.00;98603.56;4140537;28;20465;-73
2023/10/19 01:44:24;;;;;;;21.17;3.97;;;16.30;99.90;;;15.63;100.00;98604.03;4140008;28;20033;-73
2023/10/19 01:46:29;;;;;;;20.75;3.13;;;16.30;99.90;;;15.62;100.00;98589.16;4139791;28;20111;-73
2023/10/19 01:48:34;;;;;;;20.00;3.33;;;16.30;99.90;;;15.64;100.00;98589.72;4140479;28;20023;-73
2023/10/19 01:50:39;;;;;;;20.20;3.15;;;16.30;99.90;;;15.63;100.00;98591.56;4157480;28;20401;-73
2023/10/19 01:52:40;;;;;;;20.98;2.63;;;16.30;99.90;;;15.63;100.00;98586.25;4157320;28;20018;-73
2023/10/19 01:54:41;;;;;;;12.40;3.42;;;16.30;99.90;;;15.64;100.00;98581.75;4168162;28;20140;-73
2023/10/19 01:56:43;;;;;;;14.23;2.90;;;16.30;99.90;;;15.64;100.00;98576.44;4172851;28;20022;-73
2023/10/19 01:58:46;;;;;;;12.00;2.13;;;16.30;99.90;;;15.58;100.00;98577.38;4139919;28;20022;-73
2023/10/19 02:00:47;;;;;;;12.43;2.50;;;16.20;99.90;;;15.58;100.00;98577.38;4139787;28;20077;-73
2023/10/19 02:02:48;;;;;;;11.80;2.78;;;16.20;99.90;;;15.53;100.00;98572.00;4157885;28;20044;-73
2023/10/19 02:04:51;;;;;;;12.23;2.28;;;16.20;99.90;;;15.50;100.00;98566.09;4157072;28;20489;-73
2023/10/19 02:06:53;;;;;;;10.18;2.10;;;16.20;99.90;;;15.45;100.00;98550.06;4157328;28;20029;-73
2023/10/19 02:09:17;;;;;;;10.18;1.77;;;16.10;99.90;;;15.41;100.00;98559.53;4153558;28;20026;-73
2023/10/19 02:11:23;;;;;;;14.88;2.70;;;16.10;99.90;;;15.33;100.00;98554.63;4139209;28;20058;-73
2023/10/19 02:13:24;;;;;;;14.77;2.17;;;16.00;99.90;;;15.29;100.00;98548.16;4166156;28;20026;-73
2023/10/19 02:15:25;;;;;;;21.67;2.53;;;16.00;99.90;;;15.21;100.00;98548.56;4137103;28;20113;-73
2023/10/19 02:17:26;;;;;;;15.40;2.33;;;15.90;99.90;;;15.14;100.00;98544.47;4154547;28;20018;-73
2023/10/19 02:19:28;;;;;;;11.00;1.85;;;15.80;99.90;;;15.09;100.00;98539.84;4162964;28;20030;-73
2023/10/19 02:21:30;;;;;;;18.33;3.17;;;15.80;99.90;;;15.07;100.00;98541.13;4137093;28;20030;-73
2023/10/19 02:23:33;;;;;;;18.42;2.90;;;15.80;99.90;;;15.03;100.00;98535.50;4154345;28;20034;-73
2023/10/19 02:25:37;;;;;;;13.25;2.47;;;15.70;99.90;;;15.02;100.00;98538.41;4154311;28;20025;-73
2023/10/19 02:27:38;;;;;;;17.58;3.65;;;15.70;99.90;;;15.03;100.00;98540.00;4154208;28;20042;-73
2023/10/19 02:29:41;;;;;;;21.52;3.45;;;15.70;99.90;;;15.00;100.00;98541.28;4154309;28;20093;-73
2023/10/19 02:31:43;;;;;;;13.40;2.20;;;15.70;99.90;;;14.91;100.00;98527.59;4154061;28;20382;-73
2023/10/19 02:33:51;;;;;;;14.02;2.63;;;15.60;99.90;;;14.89;100.00;98535.00;4136821;28;20429;-73
2023/10/19 02:35:52;;;;;;;17.40;3.25;;;15.60;99.90;;;14.79;100.00;98529.47;4157073;28;20079;-73
2023/10/19 02:37:54;;;;;;;19.20;2.70;;;15.60;99.90;;;14.71;100.00;98529.88;4161281;28;20432;-73
2023/10/19 02:39:55;;;;;;;17.15;3.70;;;15.50;99.90;;;14.69;100.00;98512.56;4154256;28;20037;-73
2023/10/19 02:41:56;;;;;;;14.77;2.65;;;15.40;99.90;;;14.65;100.00;98509.56;4154205;28;20436;-73
2023/10/19 02:44:09;;;;;;;11.20;2.50;;;15.40;99.90;;;14.62;100.00;98514.53;4160660;28;20029;-73
2023/10/19 02:46:10;;;;;;;7.90;1.98;;;15.40;99.90;;;14.56;100.00;98500.38;4154049;28;20033;-73
2023/10/19 02:48:12;;;;;;;18.90;2.50;;;15.30;99.90;;;14.51;100.00;98502.13;4154097;28;20405;-73
2023/10/19 02:50:16;;;;;;;14.57;2.20;;;15.30;99.90;;;14.50;100.00;98498.66;4153796;28;20030;-73
2023/10/19 02:52:17;;;;;;;14.63;2.47;;;15.30;99.90;;;14.48;100.00;98500.75;4154045;28;20026;-73
2023/10/19 02:54:24;;;;;;;12.40;3.05;;;15.20;99.90;;;14.45;100.00;98500.41;4153922;28;20265;-73
2023/10/19 02:56:26;;;;;;;12.15;2.10;;;15.20;99.90;;;14.40;100.00;98496.63;4164749;28;20033;-73
2023/10/19 02:58:28;;;;;;;14.75;1.95;;;15.20;99.90;;;14.37;100.00;98497.09;4170198;28;20021;-73
2023/10/19 03:00:32;;;;;;;11.57;1.73;;;15.10;99.90;;;14.32;100.00;98498.81;4170229;28;20033;-73
2023/10/19 03:02:33;;;;;;;11.90;2.75;;;15.10;99.90;;;14.30;100.00;98496.41;4170182;28;20025;-73
2023/10/19 03:04:37;;;;;;;11.50;1.88;;;15.10;99.90;;;14.30;100.00;98496.41;4152591;28;20033;-73
2023/10/19 03:06:40;;;;;;;;;;;15.00;99.90;;;14.24;100.00;98483.25;4170469;28;20036;-73
2023/10/19 03:08:41;;;;;;;6.15;1.50;;;15.00;99.90;;;14.26;100.00;98475.88;4152590;28;20037;-73
2023/10/19 03:10:42;;;;;;;12.45;2.33;;;15.00;99.90;;;14.26;100.00;98478.53;4169999;28;20033;-73
2023/10/19 03:12:43;;;;;;;12.98;2.13;;;15.00;99.90;;;14.27;100.00;98474.84;4169865;28;20053;-73
2023/10/19 03:14:48;;;;;;;11.38;1.80;;;15.00;99.90;;;14.24;100.00;98468.16;4167504;28;20099;-73
2023/10/19 03:16:49;;;;;;;;;;;15.00;99.90;;;14.26;100.00;98458.13;4136802;28;20026;-73
2023/10/19 03:18:50;;;;;;;18.30;3.25;;;15.00;99.90;;;14.30;100.00;98455.81;4158057;28;19909;-73
2023/10/19 03:20:51;;;;;;;12.48;1.95;;;15.00;99.90;;;14.30;100.00;98464.56;4139883;28;20026;-73
2023/10/19 03:22:52;;;;;;;18.45;2.40;;;15.00;99.90;;;14.30;100.00;98456.63;4153525;28;20030;-73
2023/10/19 03:25:14;;;;;;;16.00;3.03;;;15.00;99.90;;;14.29;100.00;98459.50;4150876;28;20033;-74
2023/10/19 03:27:22;;;;;;;17.45;2.15;;;15.00;99.90;;;14.32;100.00;98454.56;4169896;28;20079;-73
2023/10/19 03:29:28;;;;;;;17.73;3.30;;;15.00;99.90;;;14.37;100.00;98459.16;4169715;28;20037;-73
2023/10/19 03:31:29;;;;;;;16.13;3.60;;;15.00;99.90;;;14.41;100.00;98452.34;4169561;28;20032;-73
2023/10/19 03:33:30;;;;;;;16.73;2.90;;;15.10;99.90;;;14.47;100.00;98455.88;4169457;28;20072;-73
2023/10/19 03:35:32;;;;;;;10.70;2.35;;;15.10;99.90;;;14.51;100.00;98465.00;4156809;28;20452;-73
2023/10/19 03:37:36;;;;;;;13.63;2.22;;;15.20;99.90;;;14.53;100.00;98454.94;4153245;28;20033;-74
2023/10/19 03:39:37;;;;;;;16.30;2.13;;;15.20;99.90;;;14.56;100.00;98457.94;4136236;28;20018;-73
2023/10/19 03:41:42;;;;;;;19.95;3.03;;;15.20;99.90;;;14.59;100.00;98451.34;4135844;28;20042;-73
2023/10/19 03:43:43;;;;;;;17.38;2.83;;;15.30;99.90;;;14.63;100.00;98447.19;4140699;28;20485;-73
2023/10/19 03:45:52;;;;;;;12.63;2.35;;;15.30;99.90;;;14.63;100.00;98436.56;4152834;28;20108;-73
2023/10/19 03:47:56;;;;;;;15.48;3.20;;;15.30;99.90;;;14.67;100.00;98441.16;4153234;28;20370;-73
2023/10/19 03:49:59;;;;;;;17.63;2.10;;;15.30;99.90;;;14.67;100.00;98440.34;4152927;28;20041;-73
2023/10/19 03:54:32;;;;;;;10.63;2.50;;;15.40;99.90;;;14.67;100.00;98433.19;4161785;28;20021;-73
2023/10/19 03:56:33;;;;;;;23.35;3.28;;;15.40;99.90;;;14.68;100.00;98432.16;4156119;28;20073;-73
2023/10/19 03:58:34;;;;;;;14.57;3.28;;;15.30;99.90;;;14.71;100.00;98430.88;4152868;28;20033;-73
2023/10/19 04:00:35;;;;;;;17.65;2.63;;;15.30;99.90;;;14.70;100.00;98423.94;4152626;28;20033;-74
2023/10/19 04:02:38;;;;;;;25.52;3.83;;;15.40;99.90;;;14.70;100.00;98422.09;4135542;28;20030;-73
2023/10/19 04:04:43;;;;;;;21.58;2.47;;;15.40;99.90;;;14.65;100.00;98413.25;4165185;28;20389;-73
2023/10/19 04:06:47;;;;;;;20.38;3.47;;;15.30;99.90;;;14.63;100.00;98412.69;4139067;28;20037;-73
2023/10/19 04:08:50;;;;;;;34.67;4.60;;;15.30;99.90;;;14.59;100.00;98406.22;4169239;28;20025;-73
2023/10/19 04:13:12;;;;;;;21.00;3.83;;;15.20;99.90;;;14.46;100.00;98406.53;4168926;28;20094;-73
2023/10/19 04:17:14;;;;;;;22.92;3.22;;;15.10;99.90;;;14.42;100.00;98403.56;4169185;28;20486;-73
2023/10/19 04:19:15;;;;;;;20.67;3.28;;;15.10;99.90;;;14.44;100.00;98404.13;4169028;28;20504;-73
2023/10/19 04:21:16;;;;;;;23.05;4.07;;;15.10;99.90;;;14.46;100.00;98396.72;4153039;28;20101;-73
2023/10/19 04:23:18;;;;;;;19.10;2.97;;;15.10;99.90;;;14.50;100.00;98403.16;4136353;28;20034;-74
2023/10/19 04:25:20;;;;;;;24.17;3.83;;;15.10;99.90;;;14.50;100.00;98402.34;4159422;28;20081;-73
2023/10/19 04:27:23;;;;;;;15.07;2.85;;;15.10;99.90;;;14.50;100.00;98392.56;4152487;28;20026;-73
2023/10/19 04:29:27;;;;;;;18.23;2.92;;;15.20;99.90;;;14.54;100.00;98395.53;4135470;28;20026;-74
2023/10/19 04:31:29;;;;;;;29.77;3.17;;;15.20;99.90;;;14.52;100.00;98389.66;4151680;28;20109;-73
2023/10/19 04:33:31;;;;;;;26.23;3.88;;;15.20;99.90;;;14.51;100.00;98388.06;4154988;28;20029;-73
2023/10/19 04:35:34;;;;;;;20.05;2.58;;;15.20;99.90;;;14.47;100.00;98390.38;4154979;28;20030;-73
2023/10/19 04:37:35;;;;;;;17.95;2.45;;;15.10;99.90;;;14.43;100.00;98383.13;4152530;28;20076;-73
2023/10/19 04:39:36;;;;;;;25.50;3.40;;;15.10;99.90;;;14.38;100.00;98379.34;4135101;28;20038;-73
2023/10/19 04:41:37;;;;;;;14.95;2.90;;;15.10;99.90;;;14.31;100.00;98375.19;4156797;28;20033;-73
2023/10/19 04:43:39;;;;;;;20.30;3.80;;;15.00;99.90;;;14.31;100.00;98372.53;4155281;28;20025;-73
2023/10/19 04:45:40;;;;;;;24.10;2.60;;;15.00;99.90;;;14.31;100.00;98378.66;4155070;28;20053;-73
2023/10/19 04:47:41;;;;;;;14.63;3.53;;;14.90;99.90;;;14.27;100.00;98382.84;4152508;28;20036;-73
2023/10/19 04:49:42;;;;;;;17.13;2.65;;;15.00;99.90;;;14.29;100.00;98375.44;4135069;28;20026;-73
2023/10/19 04:51:43;;;;;;;17.55;3.70;;;15.00;99.90;;;14.33;100.00;98371.31;4152295;28;20033;-73
2023/10/19 04:53:44;;;;;;;21.83;2.67;;;15.00;99.90;;;14.37;100.00;98375.06;4141483;28;20073;-73
2023/10/19 04:55:46;;;;;;;19.60;3.35;;;15.00;99.90;;;14.46;100.00;98369.38;4162571;28;20022;-73
2023/10/19 04:57:47;;;;;;;17.95;2.60;;;15.10;99.90;;;14.52;100.00;98368.44;4152326;28;20022;-73
2023/10/19 04:59:47;;;;;;;19.00;2.30;;;15.10;99.90;;;14.56;100.00;98365.06;4152366;28;20055;-73
2023/10/19 05:01:50;;;;;;;25.23;3.83;;;15.20;99.90;;;14.58;100.00;98356.84;4151927;28;20105;-73
2023/10/19 05:03:50;;;;;;;19.02;3.30;;;15.20;99.90;;;14.55;100.00;98350.19;4157183;28;20022;-73
2023/10/19 05:05:51;;;;;;;21.90;3.17;;;15.20;99.90;;;14.51;100.00;98351.72;4142024;28;20049;-73
2023/10/19 05:07:52;;;;;;;24.90;3.60;;;15.20;99.90;;;14.50;100.00;98344.81;4152398;28;20112;-73
2023/10/19 05:09:53;;;;;;;20.48;2.83;;;15.20;99.90;;;14.53;100.00;98343.50;4134534;28;20038;-73
2023/10/19 05:11:55;;;;;;;11.52;2.15;;;15.20;99.90;;;14.52;100.00;98339.25;4152164;28;20129;-74
2023/10/19 05:13:55;;;;;;;27.83;4.20;;;15.20;99.90;;;14.60;100.00;98344.19;4140047;28;20018;-73
2023/10/19 05:15:58;;;;;;;23.40;3.67;;;15.20;99.90;;;14.63;100.00;98341.84;4155775;28;20029;-73
2023/10/19 05:18:00;;;;;;;22.83;3.78;;;15.30;99.90;;;14.65;100.00;98329.16;4152202;28;20054;-73
2023/10/19 05:20:00;;;;;;;25.20;4.13;;;15.30;99.90;;;14.65;100.00;98320.38;4160175;28;20076;-73
2023/10/19 05:22:05;;;;;;;25.63;3.85;;;15.30;99.90;;;14.62;100.00;98312.91;4152274;28;20033;-73
2023/10/19 05:24:07;;;;;;;34.05;4.72;;;15.30;99.90;;;14.65;100.00;98320.38;4141533;28;20136;-73
2023/10/19 05:26:08;;;;;;;21.52;3.47;;;15.30;99.90;;;14.65;100.00;98312.41;4152219;28;20038;-73
2023/10/19 05:28:09;;;;;;;20.40;3.03;;;15.30;99.90;;;14.68;100.00;98301.31;4152163;28;20037;-73
2023/10/19 05:30:11;;;;;;;18.27;3.55;;;15.30;99.90;;;14.71;100.00;98306.16;4134399;28;20105;-73
2023/10/19 05:32:12;;;;;;;21.50;3.85;;;15.30;99.90;;;14.73;100.00;98299.53;4151934;28;20030;-73
2023/10/19 05:34:13;;;;;;;16.58;4.10;;;15.40;99.90;;;14.72;100.00;98286.53;4154343;28;20034;-74
2023/10/19 05:36:14;;;;;;;22.90;4.60;;;15.40;99.90;;;14.75;100.00;98288.69;4134702;28;20528;-73
2023/10/19 05:38:16;;;;;;;28.85;3.33;;;15.40;99.90;;;14.73;100.00;98286.28;4134606;28;20053;-73
2023/10/19 05:40:18;;;;;;;17.05;2.83;;;15.40;99.90;;;14.74;100.00;98276.47;4151949;28;20397;-73
2023/10/19 05:42:20;;;;;;;24.90;3.22;;;15.40;99.90;;;14.74;100.00;98273.81;4152017;28;20477;-73
2023/10/19 05:44:23;;;;;;;23.98;4.10;;;15.40;99.90;;;14.76;100.00;98277.03;4156720;28;20148;-73
2023/10/19 05:46:25;;;;;;;25.98;3.38;;;15.40;99.90;;;14.76;100.00;98277.03;4154820;28;20034;-73
2023/10/19 05:48:26;;;;;;;22.80;3.80;;;15.50;99.90;;;14.79;100.00;98276.53;4154900;28;20040;-73
2023/10/19 05:50:28;;;;;;;26.77;2.83;;;15.50;99.90;;;14.77;100.00;98281.28;4154920;28;20034;-73
2023/10/19 05:52:29;;;;;;;16.30;3.15;;;15.40;99.90;;;14.75;100.00;98273.59;4154995;28;20022;-73
2023/10/19 05:54:30;;;;;;;21.27;3.28;;;15.40;99.90;;;14.75;100.00;98272.78;4164190;28;20033;-74
2023/10/19 05:56:34;;;;;;;24.52;2.70;;;15.40;99.90;;;14.77;100.00;98282.09;4158428;28;20026;-73
2023/10/19 05:58:35;;;;;;;13.95;2.28;;;15.40;99.90;;;14.77;100.00;98263.53;4137451;28;20030;-73
2023/10/19 06:00:36;;;;;;;19.67;2.95;;;15.40;99.90;;;14.78;100.00;98256.38;4154642;28;20080;-73
2023/10/19 06:02:36;;;;;;;19.73;3.67;;;15.40;99.90;;;14.81;100.00;98261.19;4149723;28;20038;-73
2023/10/19 06:04:37;;;;;;;23.30;2.92;;;15.50;99.90;;;14.83;100.00;98253.78;4170773;28;20460;-74
2023/10/19 06:06:39;;;;;;;20.52;3.40;;;15.50;99.90;;;14.84;100.00;98252.75;4154471;28;20041;-73
2023/10/19 06:08:43;;;;;;;23.95;2.95;;;15.50;99.90;;;14.84;100.00;98247.44;4137459;28;20485;-73
2023/10/19 06:10:50;;;;;;;;;;;15.50;99.90;;;14.82;100.00;98258.28;4154836;28;20038;-74
2023/10/19 06:12:52;;;;;;;23.77;3.33;;;15.50;99.90;;;14.87;100.00;98252.25;4137781;28;19917;-74
2023/10/19 06:14:53;;;;;;;16.65;3.15;;;15.50;99.90;;;14.86;100.00;98245.34;4162686;28;20057;-74
2023/10/19 06:16:54;;;;;;;17.45;3.60;;;15.60;99.90;;;14.92;100.00;98250.47;4137247;28;20434;-74
2023/10/19 06:18:55;;;;;;;16.77;2.38;;;15.60;99.90;;;14.92;100.00;98244.34;4159730;28;20029;-74
2023/10/19 06:20:56;;;;;;;24.88;3.20;;;15.60;99.90;;;14.95;100.00;98247.34;4139696;28;20034;-74
2023/10/19 06:23:03;;;;;;;25.85;3.40;;;15.60;99.90;;;14.99;100.00;98244.19;4154663;28;20030;-74
2023/10/19 06:25:05;;;;;;;24.08;3.42;;;15.60;99.90;;;14.99;100.00;98245.00;4160286;28;20022;-74
2023/10/19 06:27:06;;;;;;;24.27;4.20;;;15.60;99.90;;;15.00;100.00;98241.28;4154288;28;20049;-74
2023/10/19 06:29:07;;;;;;;18.02;3.65;;;15.70;99.90;;;15.06;100.00;98253.56;4154156;28;20034;-74
2023/10/19 06:31:08;;;;;;;29.60;4.00;;;15.70;99.90;;;15.06;100.00;98247.44;4154185;28;20486;-74
2023/10/19 06:33:09;;;;;;;25.02;3.53;;;15.70;99.90;;;15.05;100.00;98245.88;4154197;28;20022;-74
2023/10/19 06:35:11;;;;;;;28.08;5.05;;;15.70;99.90;;;15.05;100.00;98245.88;4157771;28;20030;-73
2023/10/19 06:37:12;;;;;;;31.10;4.43;;;15.70;99.90;;;15.06;100.00;98248.25;4154397;28;20623;-73
2023/10/19 06:39:13;;;;;;;26.08;4.43;;;15.70;99.90;;;15.04;100.00;98242.41;4166431;28;20022;-73
2023/10/19 06:41:14;;;;;;;21.17;2.90;;;15.70;99.90;;;15.02;100.00;98241.03;4154382;28;20366;-73
2023/10/19 06:43:15;;;;;;;31.25;4.82;;;15.70;99.90;;;14.96;100.00;98242.84;4154145;28;20478;-73
2023/10/19 06:45:18;;;;;;;18.40;4.50;;;15.60;99.90;;;14.98;100.00;98245.22;4151407;28;20105;-73
2023/10/19 06:47:20;;;;;;;30.60;4.55;;;15.60;99.90;;;15.03;100.00;98248.75;4153131;28;20026;-73
2023/10/19 06:49:21;;;;;;;20.38;4.95;;;15.70;99.90;;;15.07;100.00;98249.88;4162448;28;20021;-73
2023/10/19 06:51:23;;;;;;;24.88;4.22;;;15.70;99.90;;;15.11;100.00;98251.00;4136577;28;20100;-73
2023/10/19 06:53:24;;;;;;;18.48;3.90;;;15.70;99.90;;;15.14;100.00;98250.47;4153794;28;20370;-74
2023/10/19 06:55:27;;;;;;;20.75;3.67;;;15.70;99.90;;;15.20;100.00;98248.72;4165042;28;20026;-73
2023/10/19 06:57:28;;;;;;;21.60;3.42;;;15.80;99.90;;;15.16;100.00;98245.75;4153957;28;20018;-73
2023/10/19 06:59:29;;;;;;;23.85;3.97;;;15.80;99.90;;;15.12;100.00;98241.97;4153828;28;20026;-73
2023/10/19 07:01:32;;;;;;;20.27;3.40;;;15.80;99.90;;;15.08;100.00;98246.19;4153743;28;20442;-73
2023/10/19 07:03:33;;;;;;;19.92;2.70;;;15.70;99.90;;;15.05;100.00;98240.56;4166483;28;20030;-74
2023/10/19 07:05:34;;;;;;;29.27;4.30;;;15.70;99.90;;;15.13;100.00;98232.16;4163126;28;20096;-73
2023/10/19 07:07:34;;;;;;;23.75;3.85;;;15.80;99.90;;;15.19;100.00;98237.28;4153845;28;20030;-73
2023/10/19 07:09:36;;;;;;;25.00;4.57;;;15.80;99.90;;;15.26;100.00;98231.81;4153498;28;20393;-74
2023/10/19 07:11:37;;;;;;;21.25;4.50;;;15.90;99.90;;;15.41;100.00;98232.75;4153512;28;20073;-74
2023/10/19 07:13:39;;;;;;;21.40;4.85;;;16.00;99.90;;;15.50;100.00;98236.63;4137209;28;20072;-74
2023/10/19 07:15:41;;;;;;;37.90;5.70;;;16.10;99.90;;;15.68;100.00;98240.03;4159660;28;20026;-74
2023/10/19 07:17:43;;;;;;;28.17;4.60;;;16.20;99.90;;;15.78;100.00;98245.44;4153494;28;20185;-74
2023/10/19 07:19:46;;;;;;;31.95;4.43;;;16.30;99.90;;;15.83;100.00;98237.53;4161462;28;20029;-74
2023/10/19 07:21:48;;;;;;;34.17;4.85;;;16.40;99.90;;;15.90;100.00;98243.44;4153578;28;20025;-73
2023/10/19 07:23:52;;;;;;;31.50;4.95;;;16.40;99.90;;;15.89;100.00;98241.81;4155936;28;20032;-73
2023/10/19 07:25:59;;;;;;;33.10;5.43;;;16.50;99.90;;;15.84;100.00;98239.13;4155408;28;20028;-74
2023/10/19 07:28:00;;;;;;;30.63;4.90;;;16.50;99.90;;;15.81;100.00;98237.75;4136581;28;20045;-74
2023/10/19 07:30:06;;;;;;;30.02;5.53;;;16.50;99.90;;;15.78;100.00;98230.28;4153153;28;20037;-74
2023/10/19 07:32:11;;;;;;;31.77;5.03;;;16.50;99.90;;;15.80;100.00;98235.38;4136287;28;20026;-74
2023/10/19 07:34:15;;;;;;;26.58;3.83;;;16.40;99.90;;;15.77;100.00;98230.56;4156036;28;20569;-74
2023/10/19 07:36:18;;;;;;;30.88;4.47;;;16.40;99.90;;;15.86;100.00;98218.41;4135819;28;20035;-74
2023/10/19 07:38:21;;;;;;;28.40;4.32;;;16.50;99.90;;;15.91;100.00;98229.09;4153309;28;20048;-74
2023/10/19 07:40:23;;;;;;;28.50;3.90;;;16.50;99.90;;;15.91;100.00;98229.09;4153221;28;20080;-74
2023/10/19 07:42:25;;;;;;;27.55;4.30;;;16.50;99.90;;;15.95;100.00;98238.16;4135977;28;20031;-74
2023/10/19 07:44:26;;;;;;;32.08;4.78;;;16.50;99.90;;;15.94;100.00;98224.09;4153457;28;20030;-74
2023/10/19 07:46:28;;;;;;;28.45;5.07;;;16.60;99.90;;;15.90;100.00;98219.50;4152919;28;20041;-74
2023/10/19 07:48:29;;;;;;;28.80;4.40;;;16.50;99.90;;;15.83;100.00;98202.97;4152960;28;20026;-74
2023/10/19 07:50:30;;;;;;;34.92;5.55;;;16.50;99.90;;;15.74;100.00;98207.91;4153139;28;20029;-74
2023/10/19 07:52:31;;;;;;;20.10;3.50;;;16.40;99.90;;;15.70;100.00;98206.03;4153125;28;20481;-74
2023/10/19 07:54:35;;;;;;;24.23;4.55;;;16.40;99.90;;;15.64;100.00;98205.16;4157919;28;20405;-74
2023/10/19 07:56:36;;;;;;;21.23;3.90;;;16.30;99.90;;;15.63;100.00;98222.16;4145978;28;20048;-74
2023/10/19 07:58:37;;;;;;;23.27;3.38;;;16.30;99.90;;;15.65;100.00;98224.56;4152558;28;20034;-74
2023/10/19 08:00:38;;;;;;;21.75;4.50;;;16.30;99.90;;;15.67;100.00;98217.16;4148731;28;20537;-74
2023/10/19 08:02:41;;;;;;;25.63;4.03;;;16.30;99.90;;;15.62;100.00;98209.13;4167641;28;20459;-73
2023/10/19 08:04:42;;;;;;;24.73;3.95;;;16.30;99.90;;;15.69;100.00;98229.13;4168577;28;20033;-75
2023/10/19 08:06:44;;;;;;;26.55;4.18;;;16.40;99.90;;;15.78;100.00;98235.59;4135268;28;20029;-75
2023/10/19 08:08:46;;;;;;;20.50;3.03;;;16.50;99.90;;;15.92;100.00;98236.81;4152581;28;20026;-75
2023/10/19 08:10:47;;;;;;;16.95;3.15;;;16.60;99.90;;;16.03;100.00;98237.72;4152752;28;20053;-75
2023/10/19 08:12:49;;;;;;;21.13;3.38;;;16.70;99.90;;;16.12;100.00;98246.84;4152511;28;20112;-76
2023/10/19 08:14:50;;;;;;;17.70;3.70;;;16.80;99.90;;;16.19;100.00;98228.81;4135041;28;20042;-75
2023/10/19 08:16:52;;;;;;;20.95;3.78;;;16.80;99.90;;;16.35;100.00;98241.19;4135433;28;20019;-75
2023/10/19 08:18:54;;;;;;;19.00;3.53;;;16.90;99.90;;;16.48;100.00;98224.00;4156382;28;20021;-75
2023/10/19 08:20:54;;;;;;;21.23;3.35;;;17.10;99.90;;;16.64;100.00;98232.91;4154964;28;20030;-75
2023/10/19 08:22:56;;;;;;;15.95;3.45;;;17.20;99.90;;;16.84;100.00;98227.75;4152943;28;20032;-75
2023/10/19 08:24:57;;;;;;;18.38;3.70;;;17.40;99.90;;;17.07;100.00;98227.31;4135108;28;20429;-75
2023/10/19 08:26:59;;;;;;;18.05;3.47;;;17.60;99.90;;;17.32;100.00;98214.13;4152586;28;20030;-75
2023/10/19 08:29:00;;;;;;;21.33;3.70;;;17.80;99.90;;;17.50;100.00;98215.53;4152650;28;20034;-75
2023/10/19 08:31:01;;;;;;;19.42;3.15;;;18.00;99.90;;;17.53;100.00;98210.44;4152410;28;20033;-75
2023/10/19 08:33:03;;;;;;;22.95;4.90;;;18.10;99.90;;;17.57;100.00;98203.56;4156187;28;20022;-75
2023/10/19 08:35:05;;;;;;;24.23;4.70;;;18.20;99.90;;;17.69;100.00;98208.66;4135007;28;20117;-75
2023/10/19 08:37:06;;;;;;;21.80;4.45;;;18.30;99.90;;;17.69;100.00;98198.81;4152422;28;20482;-75
2023/10/19 08:39:11;;;;;;;16.17;3.60;;;18.40;99.90;;;17.72;100.00;98194.81;4152707;28;20478;-75